Time;durP1;ratioP1;P1;durP2;ratioP2;P2;SDS_P1;SDS_P2;PMS_P1;PMS_P2;Temp;Humidity;BMP_temperature;BMP_pressure;BME280_temperature;BME280_humidity;BME280_pressure;Samples;Min_cycle;Max_cycle;Signal;HPM_P1;HPM_P2
2022/07/08 00:01:33;;;;;;;5.85;2.13;;;;;;;18.02;45.58;101715.41;4173896;28;20124;-62
2022/07/08 00:03:36;;;;;;;;;;;;;;;17.94;45.85;101723.25;4178811;28;20041;-62
2022/07/08 00:05:40;;;;;;;8.32;2.50;;;;;;;17.98;46.32;101718.88;4161005;28;19921;-62
2022/07/08 00:07:43;;;;;;;10.82;3.40;;;;;;;18.07;45.63;101720.66;4168021;28;20041;-62
2022/07/08 00:09:47;;;;;;;10.10;2.65;;;;;;;18.10;45.01;101716.28;4173514;28;20044;-62
2022/07/08 00:11:51;;;;;;;10.38;2.60;;;;;;;18.21;44.49;101725.97;4178565;28;20033;-61
2022/07/08 00:13:54;;;;;;;11.18;2.80;;;;;;;18.06;45.32;101726.78;4174982;28;20045;-62
2022/07/08 00:15:56;;;;;;;8.65;2.75;;;;;;;18.11;45.26;101731.22;4178105;28;20033;-62
2022/07/08 00:18:00;;;;;;;8.95;2.60;;;;;;;18.03;45.47;101722.41;4169807;28;20075;-62
2022/07/08 00:20:03;;;;;;;7.43;3.05;;;;;;;18.07;45.14;101728.56;4172174;28;20122;-62
2022/07/08 00:22:06;;;;;;;8.85;2.53;;;;;;;18.04;45.21;101718.03;4178385;28;20132;-62
2022/07/08 00:24:09;;;;;;;9.55;2.20;;;;;;;17.96;45.87;101725.91;4182336;28;20127;-62
2022/07/08 00:26:13;;;;;;;7.90;2.60;;;;;;;18.05;45.62;101728.56;4189661;28;20040;-62
2022/07/08 00:28:16;;;;;;;7.47;2.00;;;;;;;17.99;45.70;101728.53;4174068;28;20411;-62
2022/07/08 00:30:19;;;;;;;10.98;2.83;;;;;;;18.06;45.38;101732.06;4182390;28;20052;-62
2022/07/08 00:32:22;;;;;;;8.52;2.95;;;;;;;18.06;45.59;101737.31;4180625;28;20079;-62
2022/07/08 00:34:25;;;;;;;13.13;3.08;;;;;;;18.02;45.40;101741.72;4182617;28;20032;-62
2022/07/08 00:36:28;;;;;;;8.73;3.22;;;;;;;18.04;45.42;101736.44;4182089;28;20083;-62
2022/07/08 00:38:31;;;;;;;9.32;3.15;;;;;;;17.98;45.37;101742.56;4182045;28;20039;-62
2022/07/08 00:40:35;;;;;;;8.27;2.85;;;;;;;18.05;45.39;101739.09;4197191;28;20045;-61
2022/07/08 00:42:39;;;;;;;11.07;2.83;;;;;;;17.96;45.27;101736.44;4173449;28;20036;-62
2022/07/08 00:44:42;;;;;;;8.82;2.58;;;;;;;17.87;45.48;101731.97;4178130;28;20037;-62
2022/07/08 00:46:45;;;;;;;9.50;3.50;;;;;;;17.84;45.73;101734.56;4179262;28;20033;-62
2022/07/08 00:48:48;;;;;;;11.95;2.70;;;;;;;17.80;46.10;101738.06;4188705;28;20037;-62
2022/07/08 00:50:51;;;;;;;11.80;3.03;;;;;;;17.81;45.99;101745.06;4182218;28;20057;-61
2022/07/08 00:52:54;;;;;;;8.82;2.75;;;;;;;17.80;46.14;101744.22;4180607;28;20465;-61
2022/07/08 00:54:57;;;;;;;10.88;3.58;;;;;;;17.77;46.27;101751.19;4184254;28;20048;-62
2022/07/08 00:57:01;;;;;;;7.38;2.38;;;;;;;17.77;46.42;101752.09;4180752;28;20122;-61
2022/07/08 00:59:05;;;;;;;10.32;3.00;;;;;;;17.82;46.15;101753.88;4181549;28;20048;-62
2022/07/08 01:01:08;;;;;;;12.23;2.78;;;;;;;17.71;46.34;101752.06;4173073;28;20033;-62
2022/07/08 01:03:11;;;;;;;9.43;3.05;;;;;;;17.66;46.60;101753.78;4179426;28;20140;-62
2022/07/08 01:05:14;;;;;;;13.15;3.70;;;;;;;17.69;46.85;101759.03;4172527;28;20053;-62
2022/07/08 01:07:18;;;;;;;11.30;3.20;;;;;;;17.78;46.51;101760.84;4179257;28;20040;-62
2022/07/08 01:09:20;;;;;;;9.00;2.95;;;;;;;17.71;46.82;101757.31;4172217;28;20037;-62
2022/07/08 01:11:24;;;;;;;9.88;3.17;;;;;;;17.70;46.72;101758.19;4174866;28;20056;-62
2022/07/08 01:13:28;;;;;;;9.07;3.08;;;;;;;17.60;46.94;101756.38;4179163;28;20049;-62
2022/07/08 01:15:33;;;;;;;17.00;3.70;;;;;;;17.57;47.27;101759.00;4178855;28;20123;-62
2022/07/08 01:17:43;;;;;;;10.65;3.45;;;;;;;17.61;47.02;101760.78;4171079;28;20042;-62
2022/07/08 01:19:46;;;;;;;8.00;2.85;;;;;;;17.54;47.36;101757.22;4176886;28;20596;-62
2022/07/08 01:21:50;;;;;;;11.48;3.08;;;;;;;17.61;46.81;101758.16;4177751;28;20067;-62
2022/07/08 01:23:54;;;;;;;11.38;2.75;;;;;;;17.65;46.87;101757.25;4180012;28;20087;-62
2022/07/08 01:25:57;;;;;;;11.13;3.00;;;;;;;17.71;46.83;101762.59;4169308;28;20037;-61
2022/07/08 01:28:00;;;;;;;9.57;2.42;;;;;;;17.63;46.98;101757.25;4183925;28;20033;-62
2022/07/08 01:30:03;;;;;;;8.77;3.38;;;;;;;17.61;47.18;101766.03;4163138;28;20136;-61
2022/07/08 01:32:07;;;;;;;11.20;3.53;;;;;;;17.57;46.95;101761.63;4179382;28;20044;-62
2022/07/08 01:34:10;;;;;;;8.82;3.45;;;;;;;17.59;46.88;101755.47;4181037;28;20110;-62
2022/07/08 01:36:13;;;;;;;9.85;2.75;;;;;;;17.61;46.70;101756.38;4180001;28;20132;-62
2022/07/08 01:38:17;;;;;;;9.55;2.88;;;;;;;17.53;47.01;101762.47;4195240;28;20055;-62
2022/07/08 01:40:20;;;;;;;11.88;3.08;;;;;;;17.49;47.03;101750.16;4178798;28;20124;-62
2022/07/08 01:42:23;;;;;;;9.80;2.88;;;;;;;17.33;47.56;101755.31;4180152;28;20542;-62
2022/07/08 01:44:26;;;;;;;12.23;3.67;;;;;;;17.33;47.47;101757.94;4175319;28;20055;-62
2022/07/08 01:46:47;;;;;;;8.38;2.47;;;;;;;17.34;47.17;101764.09;4181945;28;20060;-62
2022/07/08 01:48:50;;;;;;;8.13;2.75;;;;;;;17.40;47.33;101766.75;4179391;28;20065;-62
2022/07/08 01:50:53;;;;;;;13.73;3.28;;;;;;;17.31;47.57;101772.81;4180647;28;20029;-62
2022/07/08 01:52:56;;;;;;;10.35;2.65;;;;;;;17.23;48.16;101774.50;4179854;28;20044;-62
2022/07/08 01:55:00;;;;;;;9.57;2.75;;;;;;;17.24;48.16;101776.28;4195839;28;20480;-63
2022/07/08 01:57:16;;;;;;;11.35;3.28;;;;;;;17.35;48.00;101768.50;4179200;28;20390;-63
2022/07/08 01:59:19;;;;;;;7.07;2.20;;;;;;;17.27;48.16;101771.94;4173852;28;20044;-62
2022/07/08 02:01:22;;;;;;;13.20;3.03;;;;;;;17.32;47.96;101774.59;4180123;28;20041;-62
2022/07/08 02:03:25;;;;;;;7.97;2.25;;;;;;;17.37;47.62;101779.88;4173178;28;20090;-62
2022/07/08 02:05:28;;;;;;;6.13;2.20;;;;;;;17.26;48.09;101775.44;4155981;28;20770;-62
2022/07/08 02:07:32;;;;;;;12.95;3.20;;;;;;;17.16;48.51;101778.84;4185934;28;20041;-62
2022/07/08 02:09:35;;;;;;;;;;;;;;;17.00;48.89;101782.22;4175937;28;20134;-62
2022/07/08 02:13:59;;;;;;;10.75;2.95;;;;;;;17.16;48.57;101777.97;4178548;28;20132;-62
2022/07/08 02:16:02;;;;;;;7.60;2.50;;;;;;;17.17;48.55;101782.34;4177770;28;20039;-62
2022/07/08 02:18:05;;;;;;;6.18;2.10;;;;;;;17.12;48.71;101781.44;4178542;28;20107;-62
2022/07/08 02:20:11;;;;;;;7.35;1.98;;;;;;;17.19;48.24;101783.25;4173827;28;20049;-62
2022/07/08 02:22:14;;;;;;;7.80;2.35;;;;;;;17.18;48.22;101782.34;4172630;28;20444;-62
2022/07/08 02:24:17;;;;;;;6.57;1.90;;;;;;;17.09;48.60;101780.53;4168264;28;20040;-62
2022/07/08 02:26:20;;;;;;;5.85;2.10;;;;;;;17.15;48.60;101777.09;4195759;28;20135;-63
2022/07/08 02:28:24;;;;;;;9.25;2.78;;;;;;;17.21;48.30;101784.13;4180032;28;20041;-62
2022/07/08 02:30:28;;;;;;;9.27;2.33;;;;;;;17.21;48.43;101771.88;4170906;28;20047;-62
2022/07/08 02:32:31;;;;;;;7.85;3.28;;;;;;;17.21;48.52;101786.75;4179864;28;20519;-63
2022/07/08 02:34:34;;;;;;;9.25;2.70;;;;;;;17.08;48.73;101786.69;4171519;28;20036;-63
2022/07/08 02:36:36;;;;;;;8.73;2.40;;;;;;;17.09;48.71;101791.03;4177798;28;20033;-63
2022/07/08 02:38:39;;;;;;;10.05;2.70;;;;;;;17.09;48.73;101796.31;4169512;28;20053;-63
2022/07/08 02:40:42;;;;;;;8.32;1.88;;;;;;;17.02;48.76;101791.00;4170763;28;20033;-62
2022/07/08 02:42:45;;;;;;;8.10;2.58;;;;;;;16.99;49.03;101791.84;4172909;28;20452;-62
2022/07/08 02:44:49;;;;;;;5.47;2.08;;;;;;;17.05;49.38;101791.00;4173351;28;20033;-62
2022/07/08 02:46:52;;;;;;;9.77;2.92;;;;;;;16.99;49.62;101802.34;4178975;28;20045;-62
2022/07/08 02:48:56;;;;;;;11.38;3.08;;;;;;;17.06;49.89;101798.91;4173416;28;20052;-62
2022/07/08 02:50:59;;;;;;;8.02;2.30;;;;;;;17.10;49.75;101805.09;4179603;28;20047;-62
2022/07/08 02:53:02;;;;;;;9.15;2.75;;;;;;;17.07;49.90;101805.94;4171498;28;20040;-63
2022/07/08 02:55:06;;;;;;;10.15;2.83;;;;;;;17.08;50.18;101801.53;4180375;28;20046;-63
2022/07/08 02:57:09;;;;;;;14.23;2.83;;;;;;;17.07;49.93;101800.69;4167145;28;20032;-63
2022/07/08 02:59:11;;;;;;;10.60;2.58;;;;;;;16.93;50.41;101799.66;4172149;28;20045;-63
2022/07/08 03:01:16;;;;;;;8.50;2.75;;;;;;;16.87;50.36;101807.47;4172189;28;20496;-63
2022/07/08 03:03:19;;;;;;;12.52;2.85;;;;;;;16.92;50.96;101808.41;4170756;28;20047;-63
2022/07/08 03:05:22;;;;;;;6.32;2.10;;;;;;;16.98;50.51;101807.59;4172332;28;20140;-63
2022/07/08 03:07:24;;;;;;;11.95;3.17;;;;;;;16.84;51.09;101810.94;4178026;28;20103;-62
2022/07/08 03:09:27;;;;;;;7.03;2.50;;;;;;;16.84;51.02;101807.44;4162890;28;20041;-63
2022/07/08 03:11:30;;;;;;;9.77;2.47;;;;;;;16.74;51.54;101802.06;4176091;28;20412;-63
2022/07/08 03:13:35;;;;;;;8.18;2.50;;;;;;;16.74;51.21;101801.19;4168020;28;20041;-63
2022/07/08 03:15:38;;;;;;;10.07;2.40;;;;;;;16.68;51.49;101812.50;4183925;28;20399;-63
2022/07/08 03:17:42;;;;;;;10.43;2.65;;;;;;;16.64;51.74;101808.09;4177514;28;20037;-63
2022/07/08 03:19:45;;;;;;;7.57;2.47;;;;;;;16.66;51.89;101814.25;4178983;28;20043;-62
2022/07/08 03:21:48;;;;;;;11.85;2.30;;;;;;;16.66;51.65;101814.25;4179276;28;20041;-63
2022/07/08 03:23:51;;;;;;;10.27;2.58;;;;;;;16.67;51.97;101810.75;4194847;28;20064;-63
2022/07/08 03:25:54;;;;;;;9.57;2.70;;;;;;;16.65;52.05;101816.88;4193808;28;20044;-62
2022/07/08 03:27:57;;;;;;;12.27;2.83;;;;;;;16.77;51.55;101822.22;4179833;28;20041;-63
2022/07/08 03:30:00;;;;;;;7.07;2.08;;;;;;;16.63;51.94;101819.47;4177932;28;20116;-62
2022/07/08 03:32:03;;;;;;;8.35;2.53;;;;;;;16.63;51.94;101823.81;4170819;28;20033;-62
2022/07/08 03:34:07;;;;;;;5.78;2.10;;;;;;;16.57;51.95;101827.25;4180313;28;20076;-62
2022/07/08 03:36:10;;;;;;;8.40;2.50;;;;;;;16.54;51.95;101824.59;4181001;28;20507;-63
2022/07/08 03:38:13;;;;;;;7.95;2.30;;;;;;;16.53;52.19;101828.13;4180697;28;20378;-63
2022/07/08 03:42:36;;;;;;;6.47;2.45;;;;;;;16.51;52.36;101824.56;4186138;28;20120;-62
2022/07/08 03:44:39;;;;;;;8.63;2.53;;;;;;;16.51;52.44;101832.44;4173855;28;20484;-64
2022/07/08 03:46:42;;;;;;;7.97;2.30;;;;;;;16.53;52.14;101836.00;4179105;28;20669;-63
2022/07/08 03:48:45;;;;;;;12.43;2.58;;;;;;;16.49;52.25;101837.69;4172056;28;20044;-63
2022/07/08 03:50:50;;;;;;;9.07;2.45;;;;;;;16.49;52.50;101836.81;4175033;28;20025;-63
2022/07/08 03:52:53;;;;;;;7.45;2.45;;;;;;;16.54;52.16;101845.59;4179521;28;20037;-63
2022/07/08 03:54:56;;;;;;;10.88;2.20;;;;;;;16.55;51.98;101850.00;4170533;28;20039;-62
2022/07/08 03:56:59;;;;;;;9.40;2.95;;;;;;;16.51;52.41;101850.81;4178426;28;20496;-62
2022/07/08 03:59:02;;;;;;;6.15;2.05;;;;;;;16.53;52.51;101849.97;4181989;28;20034;-63
2022/07/08 04:01:05;;;;;;;7.32;2.55;;;;;;;16.47;52.51;101852.53;4182368;28;20041;-63
2022/07/08 04:03:08;;;;;;;6.63;2.17;;;;;;;16.50;52.73;101851.69;4175383;28;20129;-62
2022/07/08 04:05:12;;;;;;;10.43;3.70;;;;;;;16.57;52.19;101851.78;4179186;28;20124;-62
2022/07/08 04:07:16;;;;;;;8.10;2.83;;;;;;;16.50;52.21;101857.84;4190131;28;20075;-62
2022/07/08 04:09:19;;;;;;;6.82;2.33;;;;;;;16.53;52.42;101857.00;4181841;28;20295;-62
2022/07/08 04:11:22;;;;;;;9.93;2.92;;;;;;;16.54;52.12;101858.72;4192085;28;20040;-61
2022/07/08 04:13:27;;;;;;;10.40;2.53;;;;;;;16.53;52.26;101855.25;4166099;28;20044;-62
2022/07/08 04:15:30;;;;;;;9.55;2.65;;;;;;;16.56;52.32;101868.41;4182446;28;20053;-63
2022/07/08 04:17:34;;;;;;;11.23;2.75;;;;;;;16.54;52.49;101869.22;4180282;28;20048;-62
2022/07/08 04:19:37;;;;;;;9.63;2.95;;;;;;;16.57;52.43;101864.91;4173046;28;20497;-62
2022/07/08 04:21:40;;;;;;;10.98;2.50;;;;;;;16.58;52.57;101873.66;4180657;28;20489;-63
2022/07/08 04:23:44;;;;;;;5.03;1.83;;;;;;;16.53;52.76;101880.63;4176608;28;20040;-63
2022/07/08 04:25:47;;;;;;;11.68;2.80;;;;;;;16.51;53.12;101871.81;4177203;28;20436;-63
2022/07/08 04:27:50;;;;;;;6.85;2.83;;;;;;;16.46;53.28;101878.78;4177035;28;20044;-62
2022/07/08 04:29:53;;;;;;;11.43;2.10;;;;;;;16.43;53.19;101878.72;4170972;28;20049;-62
2022/07/08 04:31:56;;;;;;;5.95;1.85;;;;;;;16.43;53.76;101884.88;4176510;28;20037;-62
2022/07/08 04:33:58;;;;;;;11.13;2.97;;;;;;;16.49;53.14;101878.81;4181805;28;20127;-62
2022/07/08 04:36:01;;;;;;;10.60;2.72;;;;;;;16.53;52.80;101875.38;4178909;28;20033;-62
2022/07/08 04:38:04;;;;;;;7.63;2.28;;;;;;;16.48;52.86;101879.66;4181641;28;20163;-62
2022/07/08 04:40:10;;;;;;;8.18;1.88;;;;;;;16.39;52.97;101881.28;4196306;28;20045;-62
2022/07/08 04:42:13;;;;;;;8.00;1.88;;;;;;;16.43;53.29;101884.88;4176460;28;20454;-62
2022/07/08 04:44:16;;;;;;;6.47;2.05;;;;;;;16.41;53.39;101883.94;4171536;28;20523;-62
2022/07/08 04:46:19;;;;;;;8.93;2.28;;;;;;;16.44;52.93;101885.72;4176242;28;20293;-62
2022/07/08 04:48:22;;;;;;;8.50;1.95;;;;;;;16.47;52.48;101891.00;4171273;28;20038;-62
2022/07/08 04:50:25;;;;;;;9.23;2.35;;;;;;;16.52;53.26;101886.72;4174214;28;20124;-62
2022/07/08 04:52:28;;;;;;;5.03;1.52;;;;;;;16.47;53.67;101893.63;4166752;28;20468;-62
2022/07/08 04:54:31;;;;;;;10.23;2.20;;;;;;;16.50;54.33;101893.69;4170370;28;20031;-62
2022/07/08 04:56:35;;;;;;;6.43;1.90;;;;;;;16.64;54.12;101900.00;4174054;28;20075;-62
2022/07/08 04:58:38;;;;;;;8.85;2.50;;;;;;;16.67;53.96;101897.41;4184760;28;20029;-62
2022/07/08 05:00:41;;;;;;;9.05;2.53;;;;;;;16.69;53.58;101903.56;4188804;28;20574;-62
2022/07/08 05:02:44;;;;;;;8.05;2.08;;;;;;;16.64;53.54;101905.25;4192008;28;20044;-62
2022/07/08 05:04:47;;;;;;;7.28;2.28;;;;;;;16.63;54.33;101907.84;4177514;28;20480;-62
2022/07/08 05:06:50;;;;;;;6.15;1.55;;;;;;;16.65;54.63;101908.78;4172328;28;20037;-62
2022/07/08 05:08:53;;;;;;;6.18;2.20;;;;;;;16.64;54.79;101910.50;4178204;28;20572;-62
2022/07/08 05:10:56;;;;;;;10.10;3.00;;;;;;;16.65;55.19;101909.63;4179045;28;20448;-62
2022/07/08 05:13:01;;;;;;;10.57;2.67;;;;;;;16.65;55.13;101922.75;4176274;28;20047;-62
2022/07/08 05:15:06;;;;;;;11.52;2.78;;;;;;;16.56;55.05;101913.03;4177951;28;20697;-62
2022/07/08 05:17:09;;;;;;;11.20;3.10;;;;;;;16.62;55.21;101917.47;4175320;28;20076;-62
2022/07/08 05:19:12;;;;;;;10.93;3.35;;;;;;;16.82;53.66;101914.19;4172667;28;20585;-62
2022/07/08 05:21:15;;;;;;;10.13;2.95;;;;;;;16.77;52.86;101914.16;4171244;28;20076;-62
2022/07/08 05:23:18;;;;;;;7.55;3.45;;;;;;;16.82;52.82;101911.56;4174140;28;20221;-62
2022/07/08 05:25:21;;;;;;;10.45;2.60;;;;;;;16.88;52.19;101909.03;4174973;28;20041;-62
2022/07/08 05:27:24;;;;;;;8.65;2.10;;;;;;;17.04;50.82;101910.09;4190771;28;20045;-62
2022/07/08 05:29:28;;;;;;;9.80;2.63;;;;;;;17.10;50.61;101905.81;4172241;28;20036;-62
2022/07/08 05:31:31;;;;;;;;;;;;;;;16.95;50.96;101908.25;4175600;28;20045;-62
2022/07/08 05:33:34;;;;;;;10.13;3.08;;;;;;;17.06;51.03;101917.13;4174129;28;19921;-62
2022/07/08 05:35:37;;;;;;;8.90;2.55;;;;;;;17.07;50.52;101915.41;4173481;28;20055;-62
2022/07/08 05:37:41;;;;;;;21.38;3.63;;;;;;;17.07;50.54;101915.41;4172748;28;20041;-62
2022/07/08 05:39:44;;;;;;;10.23;2.45;;;;;;;17.21;49.86;101905.03;4190299;28;20068;-62
2022/07/08 05:41:47;;;;;;;8.25;2.20;;;;;;;17.12;50.55;101918.09;4176766;28;20041;-62
2022/07/08 05:43:50;;;;;;;9.45;2.03;;;;;;;17.03;50.96;101918.88;4168972;28;20048;-62
2022/07/08 05:45:54;;;;;;;10.10;2.15;;;;;;;17.13;50.92;101925.09;4174199;28;20302;-62
2022/07/08 05:47:57;;;;;;;12.45;2.60;;;;;;;17.23;50.41;101932.19;4169485;28;20048;-62
2022/07/08 05:50:00;;;;;;;8.40;2.25;;;;;;;17.22;50.69;101930.47;4170896;28;20091;-62
2022/07/08 05:52:05;;;;;;;9.27;2.70;;;;;;;17.33;50.77;101930.56;4188567;28;20039;-62
2022/07/08 05:54:08;;;;;;;11.15;3.22;;;;;;;17.41;49.85;101935.00;4177195;28;20037;-61
2022/07/08 05:56:10;;;;;;;10.10;2.30;;;;;;;17.62;48.85;101939.59;4172214;28;20043;-63
2022/07/08 05:58:13;;;;;;;11.77;2.28;;;;;;;17.43;49.18;101941.19;4172581;28;20126;-62
2022/07/08 06:00:19;;;;;;;11.77;2.95;;;;;;;17.48;49.65;101935.06;4174833;28;20045;-62
2022/07/08 06:02:23;;;;;;;13.65;3.10;;;;;;;17.41;49.62;101935.00;4169325;28;20041;-62
2022/07/08 06:04:26;;;;;;;8.95;2.92;;;;;;;17.41;49.96;101945.53;4177294;28;20459;-62
2022/07/08 06:06:29;;;;;;;7.45;2.70;;;;;;;17.49;49.81;101947.34;4173573;28;20047;-62
2022/07/08 06:08:32;;;;;;;8.50;2.42;;;;;;;17.55;49.42;101942.16;4178551;28;20107;-62
2022/07/08 06:10:35;;;;;;;13.93;3.10;;;;;;;17.54;49.19;101943.03;4175183;28;20522;-62
2022/07/08 06:12:38;;;;;;;8.95;2.60;;;;;;;17.59;48.68;101954.47;4180725;28;20052;-62
2022/07/08 06:14:41;;;;;;;10.93;2.55;;;;;;;17.38;49.60;101949.91;4171759;28;20158;-63
2022/07/08 06:16:47;;;;;;;10.55;2.63;;;;;;;17.42;49.38;101949.94;4174325;28;20551;-62
2022/07/08 06:18:52;;;;;;;12.15;3.10;;;;;;;17.48;48.88;101948.22;4173596;28;20052;-62
2022/07/08 06:20:55;;;;;;;12.13;2.60;;;;;;;17.34;49.85;101956.84;4174626;28;20048;-62
2022/07/08 06:22:58;;;;;;;9.75;3.03;;;;;;;17.39;50.03;101955.16;4175997;28;20041;-62
2022/07/08 06:25:01;;;;;;;12.57;2.90;;;;;;;17.63;48.99;101956.25;4172013;28;20120;-62
2022/07/08 06:27:05;;;;;;;11.07;2.67;;;;;;;17.61;49.10;101956.25;4170332;28;20060;-62
2022/07/08 06:29:08;;;;;;;7.40;2.35;;;;;;;17.45;49.83;101954.34;4169667;28;20047;-63
2022/07/08 06:31:11;;;;;;;8.02;2.80;;;;;;;17.55;49.69;101965.81;4174457;28;20060;-62
2022/07/08 06:33:14;;;;;;;16.90;2.58;;;;;;;17.63;49.22;101965.03;4175424;28;20049;-62
2022/07/08 06:35:18;;;;;;;12.80;3.03;;;;;;;17.67;49.33;101965.03;4168096;28;20060;-63
2022/07/08 06:37:21;;;;;;;11.48;2.75;;;;;;;17.60;49.78;101969.38;4175829;28;20141;-62
2022/07/08 06:39:24;;;;;;;8.05;2.42;;;;;;;17.66;48.99;101979.09;4171603;28;20037;-63
2022/07/08 06:41:27;;;;;;;14.45;3.53;;;;;;;17.62;49.06;101972.91;4173842;28;20048;-63
2022/07/08 06:43:29;;;;;;;8.35;2.05;;;;;;;17.70;48.80;101970.34;4173096;28;20051;-63
2022/07/08 06:45:32;;;;;;;11.65;2.40;;;;;;;17.66;49.07;101968.56;4172025;28;20033;-63
2022/07/08 06:47:36;;;;;;;8.82;2.95;;;;;;;17.69;49.21;101973.84;4172253;28;20119;-64
2022/07/08 06:49:39;;;;;;;9.95;2.53;;;;;;;17.82;48.66;101970.44;4173518;28;20048;-63
2022/07/08 06:51:43;;;;;;;7.43;2.20;;;;;;;18.01;49.12;101974.16;4178848;28;20418;-63
2022/07/08 06:56:07;;;;;;;16.33;3.42;;;;;;;17.99;48.42;101975.91;4171982;28;20065;-63
2022/07/08 06:58:10;;;;;;;7.28;2.33;;;;;;;18.01;48.68;101970.66;4178757;28;20044;-63
2022/07/08 07:00:13;;;;;;;7.30;2.33;;;;;;;18.24;47.12;101970.81;4182827;28;20128;-63
2022/07/08 07:02:22;;;;;;;7.50;2.20;;;;;;;18.21;46.99;101983.91;4168764;28;20068;-64
2022/07/08 07:04:25;;;;;;;10.63;2.63;;;;;;;18.08;47.04;101972.44;4169314;28;20041;-63
2022/07/08 07:06:28;;;;;;;5.35;1.80;;;;;;;18.07;47.61;101971.56;4179129;28;20492;-62
2022/07/08 07:08:33;;;;;;;9.60;2.45;;;;;;;18.38;46.79;101965.63;4180864;28;20041;-62
2022/07/08 07:10:36;;;;;;;9.57;2.55;;;;;;;18.20;47.56;101977.78;4177546;28;20515;-63
2022/07/08 07:12:40;;;;;;;6.63;1.88;;;;;;;18.16;47.51;101973.38;4174197;28;20036;-62
2022/07/08 07:14:43;;;;;;;9.55;2.55;;;;;;;18.32;47.29;101971.72;4173377;28;20374;-62
2022/07/08 07:16:46;;;;;;;7.88;2.85;;;;;;;18.45;46.94;101978.81;4173508;28;20059;-61
2022/07/08 07:18:49;;;;;;;6.18;2.00;;;;;;;18.61;45.31;101974.53;4176131;28;20793;-62
2022/07/08 07:20:52;;;;;;;9.70;1.98;;;;;;;18.42;45.82;101973.53;4176061;28;20033;-62
2022/07/08 07:22:55;;;;;;;6.25;1.85;;;;;;;18.61;45.01;101976.28;4177471;28;20033;-61
2022/07/08 07:24:59;;;;;;;6.43;1.88;;;;;;;18.65;44.39;101988.59;4176566;28;20123;-61
2022/07/08 07:27:02;;;;;;;5.40;1.48;;;;;;;18.43;45.04;101983.22;4179101;28;20461;-61
2022/07/08 07:29:05;;;;;;;8.30;2.50;;;;;;;18.51;44.67;101983.25;4173301;28;20045;-61
2022/07/08 07:31:08;;;;;;;5.35;1.75;;;;;;;18.42;44.38;101989.34;4173046;28;20128;-62
2022/07/08 07:33:11;;;;;;;6.78;1.45;;;;;;;18.26;44.53;101977.81;4179462;28;20045;-61
2022/07/08 07:35:15;;;;;;;5.45;1.42;;;;;;;18.06;45.52;101975.06;4182263;28;20041;-62
2022/07/08 07:37:18;;;;;;;3.85;1.50;;;;;;;18.11;45.71;101985.63;4177756;28;20033;-62
2022/07/08 07:39:21;;;;;;;7.15;1.95;;;;;;;18.24;43.75;101989.25;4180427;28;20047;-61
2022/07/08 07:41:25;;;;;;;7.45;2.17;;;;;;;18.21;43.75;101983.91;4178381;28;20083;-62
2022/07/08 07:43:28;;;;;;;10.70;2.20;;;;;;;18.12;44.12;101980.38;4180600;28;20488;-62
2022/07/08 07:45:32;;;;;;;6.13;1.70;;;;;;;18.16;44.79;101983.91;4177054;28;20099;-62
2022/07/08 07:47:35;;;;;;;5.43;2.05;;;;;;;18.25;44.36;101985.72;4179470;28;20041;-61
2022/07/08 07:49:38;;;;;;;8.20;2.17;;;;;;;18.20;44.68;101983.06;4182558;28;20551;-61
2022/07/08 07:51:41;;;;;;;9.40;2.03;;;;;;;18.07;45.07;101976.81;4179331;28;20377;-62
2022/07/08 07:53:44;;;;;;;9.90;2.22;;;;;;;18.16;45.33;101981.25;4181559;28;20603;-61
2022/07/08 07:55:47;;;;;;;9.32;1.67;;;;;;;18.11;45.48;101973.34;4181908;28;20510;-61
2022/07/08 07:57:52;;;;;;;4.80;1.65;;;;;;;18.09;46.06;101971.56;4180304;28;20041;-61
2022/07/08 07:59:54;;;;;;;6.40;1.83;;;;;;;18.28;45.78;101975.19;4182122;28;20129;-61
2022/07/08 08:01:57;;;;;;;6.35;1.90;;;;;;;18.47;45.38;101971.81;4180499;28;20045;-61
2022/07/08 08:04:01;;;;;;;7.15;2.30;;;;;;;18.64;45.09;101957.84;4177761;28;20037;-61
2022/07/08 08:06:05;;;;;;;4.18;1.65;;;;;;;18.92;44.25;101968.53;4182820;28;20439;-61
2022/07/08 08:08:08;;;;;;;17.67;2.75;;;;;;;19.02;43.48;101971.22;4181073;28;20120;-61
2022/07/08 08:10:13;;;;;;;4.70;1.98;;;;;;;18.90;43.88;101976.44;4161804;28;20049;-61
2022/07/08 08:12:16;;;;;;;6.57;1.77;;;;;;;19.02;43.46;101976.47;4178633;28;20063;-61
2022/07/08 08:14:20;;;;;;;10.32;2.10;;;;;;;18.84;44.18;101972.00;4180541;28;20051;-62
2022/07/08 08:16:23;;;;;;;6.72;1.83;;;;;;;18.95;43.94;101968.56;4182093;28;20128;-61
2022/07/08 08:18:26;;;;;;;7.15;2.05;;;;;;;19.17;43.32;101964.22;4179301;28;20412;-62
2022/07/08 08:20:29;;;;;;;7.88;2.10;;;;;;;19.36;43.07;101976.59;4193600;28;20036;-62
2022/07/08 08:22:33;;;;;;;6.88;2.33;;;;;;;19.37;42.93;101977.47;4175534;28;20044;-61
2022/07/08 08:24:35;;;;;;;9.88;2.72;;;;;;;19.52;42.25;101977.50;4178424;28;20145;-61
2022/07/08 08:26:38;;;;;;;4.38;1.55;;;;;;;19.45;41.52;101967.81;4192543;28;20051;-62
2022/07/08 08:28:41;;;;;;;7.22;1.58;;;;;;;19.37;42.46;101977.47;4177932;28;20030;-62
2022/07/08 08:30:45;;;;;;;6.60;1.95;;;;;;;19.30;43.11;101975.69;4182712;28;20032;-62
2022/07/08 08:32:49;;;;;;;4.93;1.38;;;;;;;19.09;42.81;101980.03;4192130;28;20090;-62
2022/07/08 08:34:52;;;;;;;4.78;1.40;;;;;;;19.04;43.61;101978.25;4178996;28;20033;-62
2022/07/08 08:36:54;;;;;;;7.75;1.60;;;;;;;18.97;43.40;101969.47;4177325;28;20116;-62
2022/07/08 08:38:57;;;;;;;6.35;1.60;;;;;;;18.95;43.91;101980.00;4182429;28;20106;-62
2022/07/08 08:41:02;;;;;;;4.63;1.52;;;;;;;19.00;44.00;101974.75;4179534;28;20033;-62
2022/07/08 08:43:05;;;;;;;;;;;;;;;18.80;44.00;101970.22;4181723;28;20083;-62
2022/07/08 08:45:10;;;;;;;4.78;1.50;;;;;;;18.79;44.16;101973.75;4177263;28;20440;-62
2022/07/08 08:47:15;;;;;;;5.38;1.35;;;;;;;18.84;44.54;101977.25;4179825;28;20519;-62
2022/07/08 08:49:20;;;;;;;8.35;2.35;;;;;;;19.15;43.52;101969.50;4169876;28;20048;-62
2022/07/08 08:51:24;;;;;;;7.22;1.80;;;;;;;19.09;43.64;101977.41;4196757;28;20562;-62
2022/07/08 08:53:29;;;;;;;11.50;2.20;;;;;;;19.31;42.89;101978.31;4162051;28;20488;-62
2022/07/08 08:55:34;;;;;;;5.55;1.48;;;;;;;19.06;43.47;101980.03;4175663;28;20041;-62
2022/07/08 08:57:37;;;;;;;4.00;1.35;;;;;;;18.96;44.19;101971.19;4173253;28;20063;-62
2022/07/08 08:59:40;;;;;;;8.93;2.10;;;;;;;19.12;43.97;101973.91;4172388;28;20041;-62
2022/07/08 09:01:44;;;;;;;6.13;1.73;;;;;;;19.28;42.78;101978.31;4177849;28;20040;-62
2022/07/08 09:03:49;;;;;;;6.65;1.58;;;;;;;19.32;42.25;101973.97;4168028;28;20382;-62
2022/07/08 09:05:52;;;;;;;9.27;2.47;;;;;;;19.22;41.92;101988.00;4156823;28;20038;-62
2022/07/08 09:07:56;;;;;;;7.22;1.60;;;;;;;19.37;42.11;101988.00;4175548;28;20496;-61
2022/07/08 09:09:59;;;;;;;5.43;1.77;;;;;;;19.31;42.21;101985.38;4176295;28;20127;-62
2022/07/08 09:12:20;;;;;;;4.53;1.40;;;;;;;19.36;42.66;101979.22;4175477;28;20033;-62
2022/07/08 09:14:24;;;;;;;5.85;1.65;;;;;;;19.68;42.11;101985.41;4194598;28;20495;-62
2022/07/08 09:16:27;;;;;;;6.30;1.88;;;;;;;19.87;41.32;101981.97;4180490;28;20124;-61
2022/07/08 09:18:31;;;;;;;4.88;1.60;;;;;;;19.72;41.18;101984.53;4171405;28;20041;-62
2022/07/08 09:20:45;;;;;;;5.82;1.70;;;;;;;19.75;40.95;101979.28;4175637;28;20065;-62
2022/07/08 09:22:48;;;;;;;4.95;1.50;;;;;;;19.92;40.73;101979.31;4153012;28;20056;-62
2022/07/08 09:24:51;;;;;;;6.90;1.48;;;;;;;19.96;41.31;101983.72;4174195;28;20112;-62
2022/07/08 09:26:55;;;;;;;6.65;1.77;;;;;;;20.18;39.53;101979.28;4178732;28;20051;-62
2022/07/08 09:28:58;;;;;;;5.15;1.70;;;;;;;20.25;40.05;101984.56;4170446;28;20041;-61
2022/07/08 09:31:03;;;;;;;7.25;2.05;;;;;;;20.25;39.91;101981.91;4174421;28;20067;-62
2022/07/08 09:33:06;;;;;;;11.32;2.15;;;;;;;20.27;39.94;101988.06;4171327;28;20047;-65
2022/07/08 09:35:12;;;;;;;9.40;2.00;;;;;;;20.45;38.28;101982.75;4177742;28;20156;-63
2022/07/08 09:37:18;;;;;;;7.57;1.85;;;;;;;20.32;38.60;101984.53;4180568;28;20037;-62
2022/07/08 09:39:25;;;;;;;8.88;1.60;;;;;;;20.11;39.36;101988.09;4173416;28;20071;-62
2022/07/08 09:41:28;;;;;;;6.40;1.63;;;;;;;20.19;38.82;101985.44;4175215;28;20221;-62